sensor_id;sensor_type;location;lat;lon;timestamp;P1;durP1;ratioP1;P2;durP2;ratioP2
79464;SDS011;68932;47.410;8.232;2023-09-19T00:02:04;4.20;;;1.60;;
79464;SDS011;68932;47.410;8.232;2023-09-19T00:04:33;2.60;;;1.50;;
79464;SDS011;68932;47.410;8.232;2023-09-19T00:07:01;4.30;;;2.20;;
79464;SDS011;68932;47.410;8.232;2023-09-19T00:09:29;3.60;;;1.80;;
79464;SDS011;68932;47.410;8.232;2023-09-19T00:11:58;2.60;;;1.80;;
79464;SDS011;68932;47.410;8.232;2023-09-19T00:14:26;3.20;;;1.80;;
79464;SDS011;68932;47.410;8.232;2023-09-19T00:16:54;4.70;;;2.00;;
79464;SDS011;68932;47.410;8.232;2023-09-19T00:19:23;2.60;;;1.40;;
79464;SDS011;68932;47.410;8.232;2023-09-19T00:21:51;4.00;;;1.50;;
79464;SDS011;68932;47.410;8.232;2023-09-19T00:24:19;4.40;;;1.60;;
79464;SDS011;68932;47.410;8.232;2023-09-19T00:26:48;3.60;;;1.50;;
79464;SDS011;68932;47.410;8.232;2023-09-19T00:29:16;4.00;;;2.00;;
79464;SDS011;68932;47.410;8.232;2023-09-19T00:31:44;4.70;;;1.80;;
79464;SDS011;68932;47.410;8.232;2023-09-19T00:34:12;3.00;;;1.70;;
79464;SDS011;68932;47.410;8.232;2023-09-19T00:36:41;4.20;;;1.90;;
79464;SDS011;68932;47.410;8.232;2023-09-19T00:39:09;2.30;;;1.40;;
79464;SDS011;68932;47.410;8.232;2023-09-19T00:41:37;4.60;;;1.90;;
79464;SDS011;68932;47.410;8.232;2023-09-19T00:44:06;4.60;;;1.80;;
79464;SDS011;68932;47.410;8.232;2023-09-19T00:46:34;2.40;;;1.50;;
79464;SDS011;68932;47.410;8.232;2023-09-19T00:49:03;2.70;;;1.40;;
79464;SDS011;68932;47.410;8.232;2023-09-19T00:51:34;3.20;;;1.60;;
79464;SDS011;68932;47.410;8.232;2023-09-19T00:54:03;3.10;;;1.70;;
79464;SDS011;68932;47.410;8.232;2023-09-19T00:56:32;3.50;;;1.80;;
79464;SDS011;68932;47.410;8.232;2023-09-19T00:59:00;3.90;;;1.80;;
79464;SDS011;68932;47.410;8.232;2023-09-19T01:01:28;2.70;;;1.40;;
79464;SDS011;68932;47.410;8.232;2023-09-19T01:03:57;3.80;;;1.70;;
79464;SDS011;68932;47.410;8.232;2023-09-19T01:06:25;3.00;;;1.40;;
79464;SDS011;68932;47.410;8.232;2023-09-19T01:08:54;3.60;;;1.60;;
79464;SDS011;68932;47.410;8.232;2023-09-19T01:11:25;2.00;;;1.20;;
79464;SDS011;68932;47.410;8.232;2023-09-19T01:14:01;2.50;;;1.50;;
79464;SDS011;68932;47.410;8.232;2023-09-19T01:16:40;3.70;;;1.70;;
79464;SDS011;68932;47.410;8.232;2023-09-19T01:19:19;2.50;;;1.90;;
79464;SDS011;68932;47.410;8.232;2023-09-19T01:22:13;2.40;;;1.40;;
79464;SDS011;68932;47.410;8.232;2023-09-19T01:27:53;2.90;;;1.40;;
79464;SDS011;68932;47.410;8.232;2023-09-19T01:30:35;4.50;;;1.80;;
79464;SDS011;68932;47.410;8.232;2023-09-19T01:33:09;3.10;;;1.90;;
79464;SDS011;68932;47.410;8.232;2023-09-19T01:35:38;2.90;;;1.80;;
79464;SDS011;68932;47.410;8.232;2023-09-19T01:38:07;3.10;;;1.70;;
79464;SDS011;68932;47.410;8.232;2023-09-19T01:40:35;2.80;;;1.70;;
79464;SDS011;68932;47.410;8.232;2023-09-19T01:43:08;2.60;;;1.60;;
79464;SDS011;68932;47.410;8.232;2023-09-19T01:45:45;3.30;;;1.70;;
79464;SDS011;68932;47.410;8.232;2023-09-19T01:48:19;3.60;;;1.60;;
79464;SDS011;68932;47.410;8.232;2023-09-19T01:50:59;2.00;;;1.20;;
79464;SDS011;68932;47.410;8.232;2023-09-19T01:53:30;2.90;;;1.30;;
79464;SDS011;68932;47.410;8.232;2023-09-19T01:56:03;2.60;;;1.60;;
79464;SDS011;68932;47.410;8.232;2023-09-19T01:58:35;4.40;;;1.30;;
79464;SDS011;68932;47.410;8.232;2023-09-19T02:01:08;2.30;;;1.50;;
79464;SDS011;68932;47.410;8.232;2023-09-19T02:03:42;2.60;;;1.30;;
79464;SDS011;68932;47.410;8.232;2023-09-19T02:06:14;2.80;;;1.40;;
79464;SDS011;68932;47.410;8.232;2023-09-19T02:08:43;3.30;;;1.90;;
79464;SDS011;68932;47.410;8.232;2023-09-19T02:11:12;2.90;;;1.70;;
79464;SDS011;68932;47.410;8.232;2023-09-19T02:13:40;2.80;;;1.40;;
79464;SDS011;68932;47.410;8.232;2023-09-19T02:16:09;2.10;;;1.40;;
79464;SDS011;68932;47.410;8.232;2023-09-19T02:18:37;3.10;;;1.50;;
79464;SDS011;68932;47.410;8.232;2023-09-19T02:21:06;2.80;;;1.50;;
79464;SDS011;68932;47.410;8.232;2023-09-19T02:23:34;1.80;;;1.10;;
79464;SDS011;68932;47.410;8.232;2023-09-19T02:26:02;2.80;;;1.40;;
79464;SDS011;68932;47.410;8.232;2023-09-19T02:28:31;2.00;;;1.30;;
79464;SDS011;68932;47.410;8.232;2023-09-19T02:30:59;3.20;;;1.00;;
79464;SDS011;68932;47.410;8.232;2023-09-19T02:33:28;5.10;;;1.40;;
79464;SDS011;68932;47.410;8.232;2023-09-19T02:35:56;1.70;;;1.10;;
79464;SDS011;68932;47.410;8.232;2023-09-19T02:38:25;4.30;;;1.50;;
79464;SDS011;68932;47.410;8.232;2023-09-19T02:40:53;3.80;;;1.60;;
79464;SDS011;68932;47.410;8.232;2023-09-19T02:43:22;2.70;;;1.20;;
79464;SDS011;68932;47.410;8.232;2023-09-19T02:45:50;2.10;;;1.20;;
79464;SDS011;68932;47.410;8.232;2023-09-19T02:48:19;2.60;;;1.00;;
79464;SDS011;68932;47.410;8.232;2023-09-19T02:50:49;1.50;;;1.10;;
79464;SDS011;68932;47.410;8.232;2023-09-19T02:53:17;1.80;;;0.90;;
79464;SDS011;68932;47.410;8.232;2023-09-19T02:55:46;1.70;;;0.70;;
79464;SDS011;68932;47.410;8.232;2023-09-19T02:58:14;2.70;;;1.10;;
79464;SDS011;68932;47.410;8.232;2023-09-19T03:00:42;2.70;;;1.00;;
79464;SDS011;68932;47.410;8.232;2023-09-19T03:03:11;2.20;;;1.10;;
79464;SDS011;68932;47.410;8.232;2023-09-19T03:05:39;1.80;;;0.80;;
79464;SDS011;68932;47.410;8.232;2023-09-19T03:08:08;2.80;;;0.80;;
79464;SDS011;68932;47.410;8.232;2023-09-19T03:10:36;2.60;;;1.10;;
79464;SDS011;68932;47.410;8.232;2023-09-19T03:13:04;2.10;;;0.80;;
79464;SDS011;68932;47.410;8.232;2023-09-19T03:15:33;2.00;;;1.00;;
79464;SDS011;68932;47.410;8.232;2023-09-19T03:18:01;1.80;;;0.90;;
79464;SDS011;68932;47.410;8.232;2023-09-19T03:20:30;2.90;;;1.00;;
79464;SDS011;68932;47.410;8.232;2023-09-19T03:22:58;2.20;;;1.00;;
79464;SDS011;68932;47.410;8.232;2023-09-19T03:25:26;2.10;;;0.90;;
79464;SDS011;68932;47.410;8.232;2023-09-19T03:27:54;2.00;;;1.00;;
79464;SDS011;68932;47.410;8.232;2023-09-19T03:30:24;2.10;;;1.20;;
79464;SDS011;68932;47.410;8.232;2023-09-19T03:32:52;2.80;;;0.90;;
79464;SDS011;68932;47.410;8.232;2023-09-19T03:35:20;2.80;;;1.10;;
79464;SDS011;68932;47.410;8.232;2023-09-19T03:37:48;4.40;;;1.40;;
79464;SDS011;68932;47.410;8.232;2023-09-19T03:40:17;3.10;;;1.40;;
79464;SDS011;68932;47.410;8.232;2023-09-19T03:42:45;3.10;;;1.30;;
79464;SDS011;68932;47.410;8.232;2023-09-19T03:45:13;2.70;;;1.30;;
79464;SDS011;68932;47.410;8.232;2023-09-19T03:47:42;3.00;;;1.70;;
79464;SDS011;68932;47.410;8.232;2023-09-19T03:50:10;2.20;;;1.10;;
79464;SDS011;68932;47.410;8.232;2023-09-19T03:52:39;2.00;;;1.10;;
79464;SDS011;68932;47.410;8.232;2023-09-19T03:55:08;1.90;;;1.10;;
79464;SDS011;68932;47.410;8.232;2023-09-19T03:57:36;3.60;;;0.90;;
79464;SDS011;68932;47.410;8.232;2023-09-19T04:00:06;1.70;;;1.10;;
79464;SDS011;68932;47.410;8.232;2023-09-19T04:02:35;1.90;;;1.00;;
79464;SDS011;68932;47.410;8.232;2023-09-19T04:05:04;2.20;;;1.20;;
79464;SDS011;68932;47.410;8.232;2023-09-19T04:07:33;1.70;;;1.10;;
79464;SDS011;68932;47.410;8.232;2023-09-19T04:10:01;1.20;;;0.80;;
79464;SDS011;68932;47.410;8.232;2023-09-19T04:12:30;2.10;;;0.90;;
79464;SDS011;68932;47.410;8.232;2023-09-19T04:14:59;2.40;;;0.70;;
79464;SDS011;68932;47.410;8.232;2023-09-19T04:17:27;1.90;;;0.90;;
79464;SDS011;68932;47.410;8.232;2023-09-19T04:19:55;2.60;;;1.10;;
79464;SDS011;68932;47.410;8.232;2023-09-19T04:22:23;2.20;;;0.90;;
79464;SDS011;68932;47.410;8.232;2023-09-19T04:24:51;3.20;;;1.10;;
79464;SDS011;68932;47.410;8.232;2023-09-19T04:27:20;1.80;;;0.80;;
79464;SDS011;68932;47.410;8.232;2023-09-19T04:29:48;2.50;;;1.20;;
79464;SDS011;68932;47.410;8.232;2023-09-19T04:32:16;3.20;;;1.20;;
79464;SDS011;68932;47.410;8.232;2023-09-19T04:34:44;1.50;;;0.90;;
79464;SDS011;68932;47.410;8.232;2023-09-19T04:37:13;2.00;;;0.90;;
79464;SDS011;68932;47.410;8.232;2023-09-19T04:39:41;1.70;;;1.00;;
79464;SDS011;68932;47.410;8.232;2023-09-19T04:42:09;2.20;;;0.90;;
79464;SDS011;68932;47.410;8.232;2023-09-19T04:44:39;1.90;;;0.80;;
79464;SDS011;68932;47.410;8.232;2023-09-19T04:47:07;1.70;;;1.00;;
79464;SDS011;68932;47.410;8.232;2023-09-19T04:49:35;1.40;;;0.80;;
79464;SDS011;68932;47.410;8.232;2023-09-19T04:52:04;2.30;;;1.00;;
79464;SDS011;68932;47.410;8.232;2023-09-19T04:54:33;1.60;;;0.80;;
79464;SDS011;68932;47.410;8.232;2023-09-19T04:57:01;2.80;;;1.20;;
79464;SDS011;68932;47.410;8.232;2023-09-19T04:59:30;2.00;;;1.00;;
79464;SDS011;68932;47.410;8.232;2023-09-19T05:01:58;1.40;;;0.80;;
79464;SDS011;68932;47.410;8.232;2023-09-19T05:04:26;3.30;;;0.90;;
79464;SDS011;68932;47.410;8.232;2023-09-19T05:06:54;1.70;;;0.90;;
79464;SDS011;68932;47.410;8.232;2023-09-19T05:09:23;1.70;;;1.00;;
79464;SDS011;68932;47.410;8.232;2023-09-19T05:11:51;3.20;;;1.00;;
79464;SDS011;68932;47.410;8.232;2023-09-19T05:14:19;1.90;;;1.30;;
79464;SDS011;68932;47.410;8.232;2023-09-19T05:16:47;2.70;;;0.90;;
79464;SDS011;68932;47.410;8.232;2023-09-19T05:19:16;1.50;;;1.00;;
79464;SDS011;68932;47.410;8.232;2023-09-19T05:21:44;2.20;;;1.00;;
79464;SDS011;68932;47.410;8.232;2023-09-19T05:24:12;2.30;;;1.10;;
79464;SDS011;68932;47.410;8.232;2023-09-19T05:26:40;2.30;;;1.20;;
79464;SDS011;68932;47.410;8.232;2023-09-19T05:29:09;1.70;;;0.90;;
79464;SDS011;68932;47.410;8.232;2023-09-19T05:31:37;4.40;;;1.10;;
79464;SDS011;68932;47.410;8.232;2023-09-19T05:34:05;2.80;;;0.90;;
79464;SDS011;68932;47.410;8.232;2023-09-19T05:36:33;2.30;;;1.10;;
79464;SDS011;68932;47.410;8.232;2023-09-19T05:39:02;2.30;;;0.90;;
79464;SDS011;68932;47.410;8.232;2023-09-19T05:41:31;3.40;;;1.50;;
79464;SDS011;68932;47.410;8.232;2023-09-19T05:43:59;2.10;;;1.10;;
79464;SDS011;68932;47.410;8.232;2023-09-19T05:46:27;2.80;;;1.10;;
79464;SDS011;68932;47.410;8.232;2023-09-19T05:48:55;2.30;;;1.10;;
79464;SDS011;68932;47.410;8.232;2023-09-19T05:51:24;5.10;;;1.00;;
79464;SDS011;68932;47.410;8.232;2023-09-19T05:53:52;4.80;;;1.40;;
79464;SDS011;68932;47.410;8.232;2023-09-19T05:56:20;3.80;;;1.10;;
79464;SDS011;68932;47.410;8.232;2023-09-19T05:58:49;2.90;;;1.00;;
79464;SDS011;68932;47.410;8.232;2023-09-19T06:01:17;3.90;;;1.20;;
79464;SDS011;68932;47.410;8.232;2023-09-19T06:03:45;4.80;;;1.20;;
79464;SDS011;68932;47.410;8.232;2023-09-19T06:06:14;2.40;;;1.30;;
79464;SDS011;68932;47.410;8.232;2023-09-19T06:08:42;2.70;;;1.60;;
79464;SDS011;68932;47.410;8.232;2023-09-19T06:11:10;2.20;;;1.20;;
79464;SDS011;68932;47.410;8.232;2023-09-19T06:13:39;1.80;;;1.00;;
79464;SDS011;68932;47.410;8.232;2023-09-19T06:16:07;1.70;;;1.10;;
79464;SDS011;68932;47.410;8.232;2023-09-19T06:18:35;2.50;;;1.10;;
79464;SDS011;68932;47.410;8.232;2023-09-19T06:21:03;3.30;;;1.30;;
79464;SDS011;68932;47.410;8.232;2023-09-19T06:23:32;2.10;;;1.10;;
79464;SDS011;68932;47.410;8.232;2023-09-19T06:26:01;2.10;;;1.20;;
79464;SDS011;68932;47.410;8.232;2023-09-19T06:28:29;2.10;;;1.30;;
79464;SDS011;68932;47.410;8.232;2023-09-19T06:30:58;2.30;;;1.20;;
79464;SDS011;68932;47.410;8.232;2023-09-19T06:33:28;3.50;;;1.10;;
79464;SDS011;68932;47.410;8.232;2023-09-19T06:35:56;2.50;;;1.00;;
79464;SDS011;68932;47.410;8.232;2023-09-19T06:38:25;2.90;;;1.30;;
79464;SDS011;68932;47.410;8.232;2023-09-19T06:40:53;2.30;;;0.90;;
79464;SDS011;68932;47.410;8.232;2023-09-19T06:43:21;2.00;;;1.20;;
79464;SDS011;68932;47.410;8.232;2023-09-19T06:45:49;4.10;;;1.10;;
79464;SDS011;68932;47.410;8.232;2023-09-19T06:48:18;1.50;;;1.10;;
79464;SDS011;68932;47.410;8.232;2023-09-19T06:50:46;4.50;;;0.90;;
79464;SDS011;68932;47.410;8.232;2023-09-19T06:53:14;2.20;;;1.20;;
79464;SDS011;68932;47.410;8.232;2023-09-19T06:55:42;2.90;;;1.10;;
79464;SDS011;68932;47.410;8.232;2023-09-19T06:58:11;1.90;;;1.00;;
79464;SDS011;68932;47.410;8.232;2023-09-19T07:00:39;4.60;;;1.10;;
79464;SDS011;68932;47.410;8.232;2023-09-19T07:03:07;2.20;;;1.20;;
79464;SDS011;68932;47.410;8.232;2023-09-19T07:05:36;2.00;;;1.10;;
79464;SDS011;68932;47.410;8.232;2023-09-19T07:08:05;2.00;;;1.10;;
79464;SDS011;68932;47.410;8.232;2023-09-19T07:10:34;1.50;;;1.00;;
79464;SDS011;68932;47.410;8.232;2023-09-19T07:13:03;2.50;;;1.20;;
79464;SDS011;68932;47.410;8.232;2023-09-19T07:15:33;3.70;;;1.40;;
79464;SDS011;68932;47.410;8.232;2023-09-19T07:18:02;2.50;;;1.20;;
79464;SDS011;68932;47.410;8.232;2023-09-19T07:20:31;2.20;;;1.10;;
79464;SDS011;68932;47.410;8.232;2023-09-19T07:23:00;2.30;;;1.50;;
79464;SDS011;68932;47.410;8.232;2023-09-19T07:25:28;2.70;;;1.10;;
79464;SDS011;68932;47.410;8.232;2023-09-19T07:27:57;1.40;;;0.90;;
79464;SDS011;68932;47.410;8.232;2023-09-19T07:30:26;2.90;;;1.20;;
79464;SDS011;68932;47.410;8.232;2023-09-19T07:32:54;2.50;;;1.00;;
79464;SDS011;68932;47.410;8.232;2023-09-19T07:35:23;1.80;;;1.10;;
79464;SDS011;68932;47.410;8.232;2023-09-19T07:37:51;2.10;;;1.10;;
79464;SDS011;68932;47.410;8.232;2023-09-19T07:40:19;1.90;;;1.00;;
79464;SDS011;68932;47.410;8.232;2023-09-19T07:42:48;1.60;;;0.70;;
79464;SDS011;68932;47.410;8.232;2023-09-19T07:45:16;2.50;;;0.80;;
79464;SDS011;68932;47.410;8.232;2023-09-19T07:47:45;4.50;;;1.30;;
79464;SDS011;68932;47.410;8.232;2023-09-19T07:50:14;2.00;;;1.20;;
79464;SDS011;68932;47.410;8.232;2023-09-19T07:52:43;1.70;;;0.90;;
79464;SDS011;68932;47.410;8.232;2023-09-19T07:55:11;2.40;;;1.10;;
79464;SDS011;68932;47.410;8.232;2023-09-19T07:57:39;1.70;;;0.80;;
79464;SDS011;68932;47.410;8.232;2023-09-19T08:00:09;1.90;;;1.10;;
79464;SDS011;68932;47.410;8.232;2023-09-19T08:02:39;1.70;;;1.20;;
79464;SDS011;68932;47.410;8.232;2023-09-19T08:05:08;1.80;;;1.00;;
79464;SDS011;68932;47.410;8.232;2023-09-19T08:07:38;2.00;;;0.90;;
79464;SDS011;68932;47.410;8.232;2023-09-19T08:10:08;1.40;;;0.90;;
79464;SDS011;68932;47.410;8.232;2023-09-19T08:12:37;2.70;;;0.90;;
79464;SDS011;68932;47.410;8.232;2023-09-19T08:15:06;2.10;;;1.10;;
79464;SDS011;68932;47.410;8.232;2023-09-19T08:17:35;1.90;;;1.00;;
79464;SDS011;68932;47.410;8.232;2023-09-19T08:20:04;2.20;;;0.90;;
79464;SDS011;68932;47.410;8.232;2023-09-19T08:22:34;1.70;;;0.80;;
79464;SDS011;68932;47.410;8.232;2023-09-19T08:25:02;1.90;;;1.00;;
79464;SDS011;68932;47.410;8.232;2023-09-19T08:27:31;2.40;;;1.10;;
79464;SDS011;68932;47.410;8.232;2023-09-19T08:29:59;1.60;;;1.00;;
79464;SDS011;68932;47.410;8.232;2023-09-19T08:32:28;1.90;;;1.00;;
79464;SDS011;68932;47.410;8.232;2023-09-19T08:34:56;4.50;;;1.20;;
79464;SDS011;68932;47.410;8.232;2023-09-19T08:37:24;3.80;;;1.20;;
79464;SDS011;68932;47.410;8.232;2023-09-19T08:39:52;1.50;;;0.90;;
79464;SDS011;68932;47.410;8.232;2023-09-19T08:42:20;1.30;;;0.90;;
79464;SDS011;68932;47.410;8.232;2023-09-19T08:44:49;1.20;;;0.90;;
79464;SDS011;68932;47.410;8.232;2023-09-19T08:47:17;3.70;;;0.90;;
79464;SDS011;68932;47.410;8.232;2023-09-19T08:49:58;1.70;;;1.10;;
79464;SDS011;68932;47.410;8.232;2023-09-19T08:52:32;1.50;;;0.80;;
79464;SDS011;68932;47.410;8.232;2023-09-19T08:55:10;3.10;;;1.00;;
79464;SDS011;68932;47.410;8.232;2023-09-19T08:57:40;1.90;;;0.90;;
79464;SDS011;68932;47.410;8.232;2023-09-19T09:00:10;1.80;;;0.80;;
79464;SDS011;68932;47.410;8.232;2023-09-19T09:02:40;1.70;;;1.20;;
79464;SDS011;68932;47.410;8.232;2023-09-19T09:05:11;2.40;;;0.70;;
79464;SDS011;68932;47.410;8.232;2023-09-19T09:07:39;1.70;;;1.00;;
79464;SDS011;68932;47.410;8.232;2023-09-19T09:10:08;1.60;;;1.00;;
79464;SDS011;68932;47.410;8.232;2023-09-19T09:12:38;1.80;;;0.80;;
79464;SDS011;68932;47.410;8.232;2023-09-19T09:15:08;1.90;;;1.00;;
79464;SDS011;68932;47.410;8.232;2023-09-19T09:17:36;2.00;;;1.10;;
79464;SDS011;68932;47.410;8.232;2023-09-19T09:20:06;1.20;;;0.90;;
79464;SDS011;68932;47.410;8.232;2023-09-19T09:22:35;6.30;;;1.10;;
79464;SDS011;68932;47.410;8.232;2023-09-19T09:25:03;1.80;;;0.90;;
79464;SDS011;68932;47.410;8.232;2023-09-19T09:27:33;2.00;;;1.00;;
79464;SDS011;68932;47.410;8.232;2023-09-19T09:30:01;2.00;;;0.90;;
79464;SDS011;68932;47.410;8.232;2023-09-19T09:32:30;1.20;;;0.80;;
79464;SDS011;68932;47.410;8.232;2023-09-19T09:34:58;2.60;;;1.20;;
79464;SDS011;68932;47.410;8.232;2023-09-19T09:37:28;3.10;;;1.10;;
79464;SDS011;68932;47.410;8.232;2023-09-19T09:39:57;2.00;;;0.80;;
79464;SDS011;68932;47.410;8.232;2023-09-19T09:42:30;1.30;;;0.90;;
79464;SDS011;68932;47.410;8.232;2023-09-19T09:45:16;2.00;;;1.00;;
79464;SDS011;68932;47.410;8.232;2023-09-19T09:47:46;4.30;;;1.20;;
79464;SDS011;68932;47.410;8.232;2023-09-19T09:50:15;1.30;;;0.80;;
79464;SDS011;68932;47.410;8.232;2023-09-19T09:52:52;1.60;;;0.90;;
79464;SDS011;68932;47.410;8.232;2023-09-19T09:55:20;2.20;;;1.00;;
79464;SDS011;68932;47.410;8.232;2023-09-19T09:57:50;2.60;;;1.10;;
79464;SDS011;68932;47.410;8.232;2023-09-19T10:00:41;3.80;;;1.00;;
79464;SDS011;68932;47.410;8.232;2023-09-19T10:03:20;2.80;;;0.90;;
79464;SDS011;68932;47.410;8.232;2023-09-19T10:05:56;2.90;;;1.00;;
79464;SDS011;68932;47.410;8.232;2023-09-19T10:08:25;1.10;;;0.70;;
79464;SDS011;68932;47.410;8.232;2023-09-19T10:10:53;2.30;;;1.00;;
79464;SDS011;68932;47.410;8.232;2023-09-19T10:13:21;1.60;;;1.00;;
79464;SDS011;68932;47.410;8.232;2023-09-19T10:15:52;2.70;;;1.10;;
79464;SDS011;68932;47.410;8.232;2023-09-19T10:18:22;2.20;;;0.90;;
79464;SDS011;68932;47.410;8.232;2023-09-19T10:20:52;2.90;;;1.10;;
79464;SDS011;68932;47.410;8.232;2023-09-19T10:23:22;2.40;;;1.10;;
79464;SDS011;68932;47.410;8.232;2023-09-19T10:25:51;1.40;;;1.10;;
79464;SDS011;68932;47.410;8.232;2023-09-19T10:28:20;1.60;;;1.00;;
79464;SDS011;68932;47.410;8.232;2023-09-19T10:30:49;2.70;;;1.10;;
79464;SDS011;68932;47.410;8.232;2023-09-19T10:33:19;1.80;;;1.10;;
79464;SDS011;68932;47.410;8.232;2023-09-19T10:35:50;1.70;;;1.00;;
79464;SDS011;68932;47.410;8.232;2023-09-19T10:38:24;2.00;;;1.10;;
79464;SDS011;68932;47.410;8.232;2023-09-19T10:40:53;2.00;;;1.10;;
79464;SDS011;68932;47.410;8.232;2023-09-19T10:43:25;3.00;;;1.30;;
79464;SDS011;68932;47.410;8.232;2023-09-19T10:45:57;1.70;;;0.90;;
79464;SDS011;68932;47.410;8.232;2023-09-19T10:48:29;2.00;;;1.20;;
79464;SDS011;68932;47.410;8.232;2023-09-19T10:50:58;2.10;;;1.10;;
79464;SDS011;68932;47.410;8.232;2023-09-19T10:53:39;1.80;;;0.90;;
79464;SDS011;68932;47.410;8.232;2023-09-19T10:56:13;2.20;;;1.10;;
79464;SDS011;68932;47.410;8.232;2023-09-19T10:58:47;1.50;;;1.10;;
79464;SDS011;68932;47.410;8.232;2023-09-19T11:01:16;1.90;;;1.10;;
79464;SDS011;68932;47.410;8.232;2023-09-19T11:03:44;1.60;;;1.10;;
79464;SDS011;68932;47.410;8.232;2023-09-19T11:06:14;1.90;;;0.90;;
79464;SDS011;68932;47.410;8.232;2023-09-19T11:09:02;2.00;;;1.20;;
79464;SDS011;68932;47.410;8.232;2023-09-19T11:11:41;1.30;;;1.00;;
79464;SDS011;68932;47.410;8.232;2023-09-19T11:14:28;1.60;;;0.90;;
79464;SDS011;68932;47.410;8.232;2023-09-19T11:25:49;2.00;;;1.00;;
79464;SDS011;68932;47.410;8.232;2023-09-19T11:31:40;3.70;;;1.50;;
79464;SDS011;68932;47.410;8.232;2023-09-19T11:40:06;2.60;;;1.00;;
79464;SDS011;68932;47.410;8.232;2023-09-19T11:42:45;2.20;;;1.40;;
79464;SDS011;68932;47.410;8.232;2023-09-19T11:48:18;1.50;;;0.80;;
79464;SDS011;68932;47.410;8.232;2023-09-19T11:50:46;2.20;;;1.00;;
79464;SDS011;68932;47.410;8.232;2023-09-19T11:53:16;3.30;;;1.30;;
79464;SDS011;68932;47.410;8.232;2023-09-19T11:55:45;1.90;;;1.10;;
79464;SDS011;68932;47.410;8.232;2023-09-19T11:58:16;1.90;;;1.40;;
79464;SDS011;68932;47.410;8.232;2023-09-19T12:00:45;1.80;;;0.90;;
79464;SDS011;68932;47.410;8.232;2023-09-19T12:03:21;1.40;;;1.00;;
79464;SDS011;68932;47.410;8.232;2023-09-19T12:05:50;1.80;;;1.00;;
79464;SDS011;68932;47.410;8.232;2023-09-19T12:08:18;1.70;;;1.30;;
79464;SDS011;68932;47.410;8.232;2023-09-19T12:10:47;3.20;;;1.30;;
79464;SDS011;68932;47.410;8.232;2023-09-19T12:13:17;1.90;;;1.00;;
79464;SDS011;68932;47.410;8.232;2023-09-19T12:15:46;2.30;;;1.00;;
79464;SDS011;68932;47.410;8.232;2023-09-19T12:18:27;1.90;;;1.10;;
79464;SDS011;68932;47.410;8.232;2023-09-19T12:20:56;3.20;;;1.10;;
79464;SDS011;68932;47.410;8.232;2023-09-19T12:23:24;2.20;;;1.10;;
79464;SDS011;68932;47.410;8.232;2023-09-19T12:25:52;2.00;;;1.10;;
79464;SDS011;68932;47.410;8.232;2023-09-19T12:28:22;1.80;;;1.00;;
79464;SDS011;68932;47.410;8.232;2023-09-19T12:30:54;2.10;;;1.10;;
79464;SDS011;68932;47.410;8.232;2023-09-19T12:33:22;1.70;;;0.90;;
79464;SDS011;68932;47.410;8.232;2023-09-19T12:35:52;2.50;;;1.50;;
79464;SDS011;68932;47.410;8.232;2023-09-19T12:38:27;3.20;;;1.00;;
79464;SDS011;68932;47.410;8.232;2023-09-19T12:40:56;2.30;;;1.30;;
79464;SDS011;68932;47.410;8.232;2023-09-19T12:43:25;2.10;;;0.90;;
79464;SDS011;68932;47.410;8.232;2023-09-19T12:45:54;1.90;;;1.10;;
79464;SDS011;68932;47.410;8.232;2023-09-19T12:48:23;2.40;;;0.70;;
79464;SDS011;68932;47.410;8.232;2023-09-19T12:51:02;2.50;;;0.80;;
79464;SDS011;68932;47.410;8.232;2023-09-19T12:53:31;1.60;;;1.20;;
79464;SDS011;68932;47.410;8.232;2023-09-19T12:56:00;2.00;;;0.70;;
79464;SDS011;68932;47.410;8.232;2023-09-19T12:58:28;2.20;;;1.00;;
79464;SDS011;68932;47.410;8.232;2023-09-19T13:00:57;1.90;;;1.00;;
79464;SDS011;68932;47.410;8.232;2023-09-19T13:03:27;1.60;;;0.80;;
79464;SDS011;68932;47.410;8.232;2023-09-19T13:05:56;1.70;;;0.90;;
79464;SDS011;68932;47.410;8.232;2023-09-19T13:08:26;2.60;;;1.00;;
79464;SDS011;68932;47.410;8.232;2023-09-19T13:11:12;2.40;;;0.90;;
79464;SDS011;68932;47.410;8.232;2023-09-19T13:13:42;3.80;;;1.20;;
79464;SDS011;68932;47.410;8.232;2023-09-19T13:16:11;2.60;;;1.20;;
79464;SDS011;68932;47.410;8.232;2023-09-19T13:18:44;2.40;;;1.10;;
79464;SDS011;68932;47.410;8.232;2023-09-19T13:21:13;2.30;;;1.10;;
79464;SDS011;68932;47.410;8.232;2023-09-19T13:23:43;1.30;;;1.10;;
79464;SDS011;68932;47.410;8.232;2023-09-19T13:26:11;1.20;;;0.70;;
79464;SDS011;68932;47.410;8.232;2023-09-19T13:28:40;1.90;;;1.40;;
79464;SDS011;68932;47.410;8.232;2023-09-19T13:31:08;2.00;;;1.10;;
79464;SDS011;68932;47.410;8.232;2023-09-19T13:33:42;2.60;;;1.20;;
79464;SDS011;68932;47.410;8.232;2023-09-19T13:36:11;1.80;;;1.50;;
79464;SDS011;68932;47.410;8.232;2023-09-19T13:38:40;1.90;;;1.20;;
79464;SDS011;68932;47.410;8.232;2023-09-19T13:41:08;5.10;;;1.30;;
79464;SDS011;68932;47.410;8.232;2023-09-19T13:43:37;2.70;;;1.00;;
79464;SDS011;68932;47.410;8.232;2023-09-19T13:46:05;2.70;;;1.20;;
79464;SDS011;68932;47.410;8.232;2023-09-19T13:48:33;1.80;;;1.00;;
79464;SDS011;68932;47.410;8.232;2023-09-19T13:51:03;2.70;;;1.10;;
79464;SDS011;68932;47.410;8.232;2023-09-19T13:53:31;2.00;;;1.30;;
79464;SDS011;68932;47.410;8.232;2023-09-19T13:55:59;2.30;;;1.40;;
79464;SDS011;68932;47.410;8.232;2023-09-19T13:58:28;1.70;;;1.30;;
79464;SDS011;68932;47.410;8.232;2023-09-19T14:00:57;2.00;;;1.00;;
79464;SDS011;68932;47.410;8.232;2023-09-19T14:03:25;2.30;;;1.30;;
79464;SDS011;68932;47.410;8.232;2023-09-19T14:05:54;4.50;;;1.40;;
79464;SDS011;68932;47.410;8.232;2023-09-19T14:08:22;1.70;;;1.00;;
79464;SDS011;68932;47.410;8.232;2023-09-19T14:10:50;1.90;;;0.80;;
79464;SDS011;68932;47.410;8.232;2023-09-19T14:13:19;2.10;;;0.80;;
79464;SDS011;68932;47.410;8.232;2023-09-19T14:15:47;4.00;;;1.10;;
79464;SDS011;68932;47.410;8.232;2023-09-19T14:18:15;2.50;;;1.40;;
79464;SDS011;68932;47.410;8.232;2023-09-19T14:20:44;1.80;;;1.20;;
79464;SDS011;68932;47.410;8.232;2023-09-19T14:23:12;1.80;;;1.10;;
79464;SDS011;68932;47.410;8.232;2023-09-19T14:25:41;1.80;;;0.90;;
79464;SDS011;68932;47.410;8.232;2023-09-19T14:28:09;2.80;;;1.20;;
79464;SDS011;68932;47.410;8.232;2023-09-19T14:30:37;1.90;;;1.50;;
79464;SDS011;68932;47.410;8.232;2023-09-19T14:33:06;2.60;;;1.10;;
79464;SDS011;68932;47.410;8.232;2023-09-19T14:35:36;2.80;;;1.00;;
79464;SDS011;68932;47.410;8.232;2023-09-19T14:38:04;5.10;;;1.20;;
79464;SDS011;68932;47.410;8.232;2023-09-19T14:40:33;1.90;;;1.20;;
79464;SDS011;68932;47.410;8.232;2023-09-19T14:43:01;3.60;;;1.20;;
79464;SDS011;68932;47.410;8.232;2023-09-19T14:45:30;2.10;;;1.10;;
79464;SDS011;68932;47.410;8.232;2023-09-19T14:47:58;3.10;;;1.40;;
79464;SDS011;68932;47.410;8.232;2023-09-19T14:50:26;1.70;;;1.10;;
79464;SDS011;68932;47.410;8.232;2023-09-19T14:52:54;1.60;;;1.00;;
79464;SDS011;68932;47.410;8.232;2023-09-19T14:55:23;3.30;;;1.50;;
79464;SDS011;68932;47.410;8.232;2023-09-19T14:57:51;1.90;;;1.30;;
79464;SDS011;68932;47.410;8.232;2023-09-19T15:00:20;1.80;;;0.90;;
79464;SDS011;68932;47.410;8.232;2023-09-19T15:02:48;2.40;;;0.90;;
79464;SDS011;68932;47.410;8.232;2023-09-19T15:05:16;1.70;;;1.20;;
79464;SDS011;68932;47.410;8.232;2023-09-19T15:07:45;3.50;;;1.40;;
79464;SDS011;68932;47.410;8.232;2023-09-19T15:10:13;1.90;;;1.20;;
79464;SDS011;68932;47.410;8.232;2023-09-19T15:12:41;2.60;;;1.10;;
79464;SDS011;68932;47.410;8.232;2023-09-19T15:15:10;3.00;;;1.20;;
79464;SDS011;68932;47.410;8.232;2023-09-19T15:17:39;3.00;;;1.20;;
79464;SDS011;68932;47.410;8.232;2023-09-19T15:20:08;3.20;;;1.30;;
79464;SDS011;68932;47.410;8.232;2023-09-19T15:22:37;1.50;;;0.60;;
79464;SDS011;68932;47.410;8.232;2023-09-19T15:25:06;2.00;;;0.90;;
79464;SDS011;68932;47.410;8.232;2023-09-19T15:27:35;1.40;;;1.30;;